Luxembourg, Luxembourg

2:52 PM CEST on September 22, 2014 (GMT +0200)
Walferdange | Change Station
CLOSE
Current Station
Personal Weather Station
Location: Walferdange, LUXEMBOURG
Elevation: 764 ft
Nearby Weather Stations

Elev 764 ft 49.67 °N, 6.14 °E | Updated 1 second ago

Mostly Cloudy
Mostly Cloudy
60.1 °F
Feels Like 60.1 °F
N
7.6
Wind Variable Wind from SSE
Gusts 16.8 mph

Today
High -- | Low -- °F
--% Chance of Precip.
Yesterday
High -- | Low -- °F
Precip. -- in
7:21 AM 7:33 PM
Waning Crescent, 3% visible
Pressure 30.12 in
Visibility 6.2 miles
Clouds Few 2500 ft
Mostly Cloudy 6000 ft
Dew Point 46 °F
Humidity 60%
Rainfall 0.01 in
Snow Depth Not available.
UV 3 out of 12
Pollen Not available.
Air Quality Not available.
Flu Activity Not available.
METAR ELLX 221220Z 29011KT 260V360 9999 FEW025 BKN060 14/07 Q1020 NOSIG

More Conditions Fewer Conditions

Pressure 30.12 in
Visibility 6.2 miles
Clouds Few 2500 ft
Mostly Cloudy 6000 ft
Dew Point 46 °F
Humidity 60%
Rainfall 0.01 in
Snow Depth Not available.
UV 3 out of 12
Pollen Not available.
Air Quality Not available.
Flu Activity Not available.
METAR ELLX 221220Z 29011KT 260V360 9999 FEW025 BKN060 14/07 Q1020 NOSIG

More Conditions Fewer Conditions

10-Day Weather Forecast

Almanac

Astronomy

Sep. 22, 2014 Rise Set
Actual Time 7:21 AM CEST 7:33 PM CEST
Civil Twilight 6:49 AM CEST 8:05 PM CEST
Nautical Twilight 6:11 AM CEST 8:43 PM CEST
Astronomical Twilight 5:32 AM CEST 9:22 PM CEST
Moon 5:28 AM CEST 6:37 PM CEST
Length of Visible Light 13h 16m
Length of Day
12h 12m
Tomorrow will be 3m 40s shorter.
Waning Crescent, 3% of the Moon is Illuminated
Today
Waning Crescent
Sep 24
New
Oct 1
First Quarter
Oct 8
Full
Oct 15
Last Quarter

Yesterday's Extremes

Country Highs Country Lows

Community

WunderPhotos

Upload Photos

1,755,419 photos uploaded!

Nearby

Snow Depth

Not available.

Earthquake Activity

City Distance Mag. Time & Date
No recent earthquake activity has been reported nearby.
Minimum magnitude displayed is 2.5.

Coastal Water Temperatures

Place Temperature
No Stations Reporting

Nearby Weather Stations